Time;durP1;ratioP1;P1;durP2;ratioP2;P2;SDS_P1;SDS_P2;PMS_P1;PMS_P2;Temp;Humidity;BMP_temperature;BMP_pressure;BME280_temperature;BME280_humidity;BME280_pressure;Samples;Min_cycle;Max_cycle;Signal;HPM_P1;HPM_P2
2021/09/12 00:02:00;;;;;;;19.65;14.27;;;20.20;99.90;;;;;;5054388;28;20590;-75
2021/09/12 00:04:27;;;;;;;21.67;14.23;;;20.20;99.90;;;;;;5048215;28;20236;-75
2021/09/12 00:06:54;;;;;;;23.20;15.02;;;20.20;99.90;;;;;;5056124;28;20205;-75
2021/09/12 00:09:21;;;;;;;21.23;14.82;;;20.20;99.90;;;;;;5065483;28;20214;-75
2021/09/12 00:11:49;;;;;;;21.98;14.60;;;20.20;99.90;;;;;;5056457;28;20212;-75
2021/09/12 00:14:17;;;;;;;21.17;14.63;;;20.10;99.90;;;;;;5058349;28;20208;-75
2021/09/12 00:16:44;;;;;;;22.10;13.35;;;20.20;99.90;;;;;;5061293;28;20205;-75
2021/09/12 00:19:11;;;;;;;24.98;15.52;;;20.20;99.90;;;;;;5060800;28;20205;-75
2021/09/12 00:21:38;;;;;;;23.92;13.88;;;20.20;99.90;;;;;;5057795;28;20210;-75
2021/09/12 00:24:05;;;;;;;20.23;13.73;;;20.20;99.90;;;;;;5064767;28;20219;-75
2021/09/12 00:26:32;;;;;;;21.10;13.55;;;20.20;99.90;;;;;;5061480;28;20204;-75
2021/09/12 00:29:00;;;;;;;21.90;13.82;;;20.10;99.90;;;;;;5052060;28;20234;-76
2021/09/12 00:31:27;;;;;;;22.13;13.77;;;20.10;99.90;;;;;;5055108;28;20208;-75
2021/09/12 00:33:54;;;;;;;21.60;13.98;;;20.20;99.90;;;;;;5049519;28;20211;-75
2021/09/12 00:36:21;;;;;;;27.10;13.30;;;20.10;99.90;;;;;;5051383;28;20203;-75
2021/09/12 00:38:48;;;;;;;19.73;13.50;;;20.10;99.90;;;;;;5057807;28;20210;-75
2021/09/12 00:41:15;;;;;;;24.30;15.32;;;20.10;99.90;;;;;;5057201;28;20218;-75
2021/09/12 00:43:42;;;;;;;23.92;14.88;;;20.20;99.90;;;;;;5054241;28;20208;-75
2021/09/12 00:46:11;;;;;;;20.98;13.88;;;20.10;99.90;;;;;;5047893;28;20223;-75
2021/09/12 00:48:38;;;;;;;26.95;13.50;;;20.10;99.90;;;;;;5052488;28;20314;-75
2021/09/12 00:51:05;;;;;;;26.55;15.00;;;20.10;99.90;;;;;;5065518;28;20208;-76
2021/09/12 00:53:35;;;;;;;25.63;15.73;;;20.10;99.90;;;;;;5059579;28;20197;-75
2021/09/12 00:56:03;;;;;;;19.77;14.43;;;20.10;99.90;;;;;;5050758;28;20202;-75
2021/09/12 00:58:32;;;;;;;21.45;13.32;;;20.10;99.90;;;;;;5055713;28;20210;-75
2021/09/12 01:00:59;;;;;;;27.42;14.63;;;20.10;99.90;;;;;;5061630;28;20231;-75
2021/09/12 01:03:27;;;;;;;21.08;13.95;;;20.10;99.90;;;;;;5057126;28;20234;-75
2021/09/12 01:05:54;;;;;;;22.17;14.80;;;20.10;99.90;;;;;;5053601;28;20198;-75
2021/09/12 01:08:21;;;;;;;20.85;13.20;;;20.10;99.90;;;;;;5065040;28;20232;-75
2021/09/12 01:10:49;;;;;;;19.40;13.27;;;20.00;99.90;;;;;;5059228;28;20291;-75
2021/09/12 01:13:16;;;;;;;18.63;12.82;;;20.00;99.90;;;;;;5054846;28;20259;-76
2021/09/12 01:15:43;;;;;;;20.95;12.88;;;20.00;99.90;;;;;;5047003;28;20635;-75
2021/09/12 01:18:10;;;;;;;26.30;14.35;;;20.00;99.90;;;;;;5059385;28;20263;-75
2021/09/12 01:20:39;;;;;;;21.45;13.82;;;20.00;99.90;;;;;;5058757;28;20211;-75
2021/09/12 01:23:07;;;;;;;27.98;15.85;;;20.00;99.90;;;;;;5053021;28;20198;-75
2021/09/12 01:25:36;;;;;;;20.73;12.95;;;20.00;99.90;;;;;;5054254;28;20198;-75
2021/09/12 01:28:04;;;;;;;20.63;13.75;;;20.00;99.90;;;;;;5047743;28;20250;-75
2021/09/12 01:30:31;;;;;;;27.42;14.38;;;20.00;99.90;;;;;;5054657;28;20204;-75
2021/09/12 01:32:59;;;;;;;19.40;11.77;;;20.00;99.90;;;;;;5047554;28;20202;-75
2021/09/12 01:35:26;;;;;;;22.77;13.85;;;20.00;99.90;;;;;;5060397;28;20208;-76
2021/09/12 01:37:53;;;;;;;21.90;13.27;;;19.90;99.90;;;;;;5058908;28;20208;-75
2021/09/12 01:40:20;;;;;;;21.23;13.35;;;19.90;99.90;;;;;;5049780;28;20208;-75
2021/09/12 01:42:48;;;;;;;20.90;13.80;;;19.90;99.90;;;;;;5054714;28;20213;-75
2021/09/12 01:45:15;;;;;;;20.35;12.48;;;19.90;99.90;;;;;;5060013;28;20238;-75
2021/09/12 01:47:46;;;;;;;21.20;12.82;;;19.90;99.90;;;;;;5055019;28;20230;-75
2021/09/12 01:50:13;;;;;;;17.95;12.45;;;19.90;99.90;;;;;;5052656;28;20281;-75
2021/09/12 01:52:40;;;;;;;23.45;13.15;;;19.90;99.90;;;;;;5047564;28;20316;-75
2021/09/12 01:55:08;;;;;;;25.15;13.35;;;19.80;99.90;;;;;;5054833;28;20209;-75
2021/09/12 01:57:34;;;;;;;20.17;12.95;;;19.80;99.90;;;;;;5064455;28;20232;-75
2021/09/12 02:00:04;;;;;;;20.50;13.43;;;19.70;99.90;;;;;;5051364;28;20263;-75
2021/09/12 02:02:32;;;;;;;20.98;12.40;;;19.70;99.90;;;;;;5057585;28;20212;-75
2021/09/12 02:04:59;;;;;;;17.73;11.82;;;19.70;99.90;;;;;;5057617;28;20225;-75
2021/09/12 02:07:26;;;;;;;24.48;14.80;;;19.80;99.90;;;;;;5053843;28;20209;-75
2021/09/12 02:09:53;;;;;;;22.48;12.10;;;19.70;99.90;;;;;;5056444;28;20209;-75
2021/09/12 02:12:20;;;;;;;16.58;12.20;;;19.70;99.90;;;;;;5057299;28;20235;-75
2021/09/12 02:14:47;;;;;;;28.75;13.32;;;19.70;99.90;;;;;;5064496;28;20234;-75
2021/09/12 02:17:15;;;;;;;21.33;13.15;;;19.70;99.90;;;;;;5054549;28;20200;-75
2021/09/12 02:19:42;;;;;;;20.25;13.50;;;19.70;99.90;;;;;;5048358;28;20708;-75
2021/09/12 02:22:09;;;;;;;26.83;13.27;;;19.70;99.90;;;;;;5053106;28;20250;-75
2021/09/12 02:24:37;;;;;;;20.23;12.32;;;19.70;99.90;;;;;;5058996;28;20209;-75
2021/09/12 02:27:04;;;;;;;20.35;14.30;;;19.60;99.90;;;;;;5063713;28;20221;-75
2021/09/12 02:29:31;;;;;;;24.67;14.43;;;19.70;99.90;;;;;;5053442;28;20293;-75
2021/09/12 02:31:58;;;;;;;20.65;14.30;;;19.70;99.90;;;;;;5048622;28;20208;-75
2021/09/12 02:34:26;;;;;;;22.35;12.82;;;19.60;99.90;;;;;;5057715;28;20204;-75
2021/09/12 02:36:53;;;;;;;21.88;12.80;;;19.60;99.90;;;;;;5045636;28;20528;-75
2021/09/12 02:39:20;;;;;;;19.58;11.73;;;19.60;99.90;;;;;;5052352;28;20275;-76
2021/09/12 02:41:47;;;;;;;20.15;13.35;;;19.60;99.90;;;;;;5057029;28;20208;-75
2021/09/12 02:44:14;;;;;;;19.35;11.70;;;19.60;99.90;;;;;;5046828;28;20237;-75
2021/09/12 02:46:41;;;;;;;22.20;13.60;;;19.50;99.90;;;;;;5053088;28;20208;-75
2021/09/12 02:49:08;;;;;;;23.20;13.50;;;19.50;99.90;;;;;;5061054;28;20298;-75
2021/09/12 02:51:36;;;;;;;21.65;13.73;;;19.50;99.90;;;;;;5058953;28;20247;-75
2021/09/12 02:54:03;;;;;;;20.30;12.13;;;19.50;99.90;;;;;;5050627;28;20263;-75
2021/09/12 02:56:30;;;;;;;21.80;14.32;;;19.40;99.90;;;;;;5065478;28;20736;-76
2021/09/12 02:58:57;;;;;;;21.55;13.60;;;19.40;99.90;;;;;;5050651;28;20203;-75
2021/09/12 03:01:23;;;;;;;29.10;12.55;;;19.40;99.90;;;;;;5065417;28;20253;-75
2021/09/12 03:03:50;;;;;;;22.30;13.13;;;19.40;99.90;;;;;;5050996;28;20233;-75
2021/09/12 03:06:17;;;;;;;25.02;13.43;;;19.40;99.90;;;;;;5055294;28;20293;-75
2021/09/12 03:08:46;;;;;;;23.05;11.73;;;19.40;99.90;;;;;;5052960;28;20247;-76
2021/09/12 03:11:12;;;;;;;19.67;13.63;;;19.30;99.90;;;;;;5060625;28;20208;-75
2021/09/12 03:13:39;;;;;;;20.55;13.27;;;19.30;99.90;;;;;;5059789;28;20554;-75
2021/09/12 03:16:06;;;;;;;20.95;13.80;;;19.30;99.90;;;;;;5055265;28;20232;-75
2021/09/12 03:18:33;;;;;;;20.15;13.05;;;19.30;99.90;;;;;;5067882;28;20266;-75
2021/09/12 03:21:00;;;;;;;23.13;12.88;;;19.20;99.90;;;;;;5035703;28;20260;-75
2021/09/12 03:23:27;;;;;;;17.55;12.82;;;19.20;99.90;;;;;;5059736;28;20205;-75
2021/09/12 03:25:55;;;;;;;20.90;13.70;;;19.20;99.90;;;;;;5064953;28;20210;-75
2021/09/12 03:28:22;;;;;;;17.08;11.93;;;19.20;99.90;;;;;;5060103;28;20259;-75
2021/09/12 03:30:49;;;;;;;29.45;14.30;;;19.20;99.90;;;;;;5055369;28;20213;-75
2021/09/12 03:33:16;;;;;;;20.85;13.00;;;19.20;99.90;;;;;;5061175;28;20306;-75
2021/09/12 03:35:44;;;;;;;20.38;12.63;;;19.20;99.90;;;;;;5059847;28;20209;-75
2021/09/12 03:38:11;;;;;;;24.23;13.35;;;19.20;99.90;;;;;;5049209;28;20195;-75
2021/09/12 03:40:38;;;;;;;24.13;11.88;;;19.30;99.90;;;;;;5049061;28;20204;-75
2021/09/12 03:43:07;;;;;;;18.63;12.32;;;19.30;99.90;;;;;;5049574;28;20201;-75
2021/09/12 03:45:34;;;;;;;29.17;13.75;;;19.20;99.90;;;;;;5065777;28;20207;-75
2021/09/12 03:48:01;;;;;;;18.73;12.55;;;19.20;99.90;;;;;;5062012;28;20208;-75
2021/09/12 03:50:28;;;;;;;26.45;12.88;;;19.20;99.90;;;;;;5060400;28;20263;-75
2021/09/12 03:52:55;;;;;;;22.65;12.65;;;19.20;99.90;;;;;;5059879;28;20235;-75
2021/09/12 03:55:22;;;;;;;25.35;11.77;;;19.10;99.90;;;;;;5060361;28;20205;-75
2021/09/12 03:57:50;;;;;;;21.83;12.18;;;19.10;99.90;;;;;;5061290;28;20273;-75
2021/09/12 04:00:19;;;;;;;22.23;13.00;;;19.10;99.90;;;;;;5060760;28;20304;-75
2021/09/12 04:02:46;;;;;;;20.65;13.25;;;19.00;99.90;;;;;;5050427;28;20544;-75
2021/09/12 04:05:13;;;;;;;23.38;11.75;;;19.00;99.90;;;;;;5063094;28;20308;-75
2021/09/12 04:07:41;;;;;;;20.88;12.00;;;18.80;99.90;;;;;;5059852;28;20261;-75
2021/09/12 04:10:09;;;;;;;15.80;10.50;;;18.80;99.90;;;;;;5059313;28;20227;-75
2021/09/12 04:12:36;;;;;;;20.30;13.23;;;18.80;99.90;;;;;;5066059;28;20614;-75
2021/09/12 04:15:03;;;;;;;17.63;10.68;;;18.70;99.90;;;;;;5058512;28;20226;-75
2021/09/12 04:17:31;;;;;;;18.65;10.98;;;18.70;99.90;;;;;;5050177;28;20573;-75
2021/09/12 04:19:58;;;;;;;18.55;11.55;;;18.60;99.90;;;;;;5057520;28;20202;-75
2021/09/12 04:22:25;;;;;;;16.25;11.85;;;18.70;99.90;;;;;;5049145;28;20205;-75
2021/09/12 04:24:52;;;;;;;25.45;11.30;;;18.60;99.90;;;;;;5060405;28;20205;-75
2021/09/12 04:27:18;;;;;;;19.67;12.07;;;18.60;99.90;;;;;;5054349;28;20247;-76
2021/09/12 04:29:46;;;;;;;26.50;12.05;;;18.60;99.90;;;;;;5056579;28;20221;-75
2021/09/12 04:32:12;;;;;;;15.90;11.30;;;18.50;99.90;;;;;;5064865;28;20548;-75
2021/09/12 04:34:43;;;;;;;17.10;10.90;;;18.50;99.90;;;;;;5054129;28;20214;-75
2021/09/12 04:37:10;;;;;;;22.17;12.32;;;18.50;99.90;;;;;;5051838;28;20211;-75
2021/09/12 04:39:36;;;;;;;22.60;10.65;;;18.50;99.90;;;;;;5059624;28;20208;-75
2021/09/12 04:42:04;;;;;;;20.63;11.25;;;18.40;99.90;;;;;;5057513;28;20203;-75
2021/09/12 04:44:31;;;;;;;17.10;11.15;;;18.40;99.90;;;;;;5060315;28;20204;-75
2021/09/12 04:46:58;;;;;;;19.40;11.60;;;18.40;99.90;;;;;;5058919;28;20215;-75
2021/09/12 04:49:25;;;;;;;15.85;11.35;;;18.30;99.90;;;;;;5059216;28;20260;-75
2021/09/12 04:51:53;;;;;;;16.55;10.48;;;18.30;99.90;;;;;;5047781;28;20209;-75
2021/09/12 04:54:20;;;;;;;20.77;9.75;;;18.20;99.90;;;;;;5060603;28;20263;-75
2021/09/12 04:56:48;;;;;;;14.55;10.82;;;18.20;99.90;;;;;;5059286;28;20207;-75
2021/09/12 04:59:14;;;;;;;19.88;11.00;;;18.20;99.90;;;;;;5065218;28;20223;-75
2021/09/12 05:01:41;;;;;;;13.35;9.68;;;18.20;99.90;;;;;;5062388;28;20607;-75
2021/09/12 05:04:08;;;;;;;21.75;10.40;;;18.20;99.90;;;;;;5055207;28;20232;-74
2021/09/12 05:06:35;;;;;;;19.70;11.15;;;18.10;99.90;;;;;;5058303;28;20212;-75
2021/09/12 05:09:03;;;;;;;20.05;11.50;;;18.10;99.90;;;;;;5053200;28;21033;-76
2021/09/12 05:11:30;;;;;;;18.63;11.52;;;18.10;99.90;;;;;;5058814;28;20611;-75
2021/09/12 05:13:57;;;;;;;15.98;10.80;;;18.10;99.90;;;;;;5065810;28;20203;-75
2021/09/12 05:16:24;;;;;;;14.50;9.43;;;18.10;99.90;;;;;;5049106;28;20201;-75
2021/09/12 05:18:51;;;;;;;20.63;10.32;;;18.20;99.90;;;;;;5059010;28;20205;-75
2021/09/12 05:21:18;;;;;;;12.80;9.15;;;18.10;99.90;;;;;;5059391;28;20230;-75
2021/09/12 05:23:45;;;;;;;15.82;9.07;;;18.20;99.90;;;;;;5057289;28;20208;-75
2021/09/12 05:26:14;;;;;;;14.25;8.70;;;18.10;99.90;;;;;;5061077;28;20208;-75
2021/09/12 05:28:41;;;;;;;14.00;9.23;;;18.10;99.90;;;;;;5056977;28;20254;-75
2021/09/12 05:31:08;;;;;;;22.20;8.68;;;18.10;99.90;;;;;;5055934;28;20212;-75
2021/09/12 05:33:35;;;;;;;23.40;10.00;;;18.10;99.90;;;;;;5052778;28;20210;-75
2021/09/12 05:36:02;;;;;;;13.52;9.30;;;18.10;99.90;;;;;;5054093;28;20736;-75
2021/09/12 05:38:29;;;;;;;16.00;8.27;;;18.10;99.90;;;;;;5059023;28;20209;-75
2021/09/12 05:40:55;;;;;;;18.75;8.25;;;18.10;99.90;;;;;;5066538;28;20188;-76
2021/09/12 05:43:24;;;;;;;13.35;8.45;;;18.10;99.90;;;;;;5069353;28;20201;-75
2021/09/12 05:45:51;;;;;;;16.58;8.48;;;18.10;99.90;;;;;;5051835;28;20216;-75
2021/09/12 05:48:18;;;;;;;11.73;7.95;;;18.10;99.90;;;;;;5065600;28;20238;-75
2021/09/12 05:50:45;;;;;;;15.70;9.73;;;18.10;99.90;;;;;;5074194;28;20235;-75
2021/09/12 05:53:13;;;;;;;18.58;9.65;;;18.10;99.90;;;;;;5066975;28;20201;-75
2021/09/12 05:55:40;;;;;;;13.10;8.25;;;18.10;99.90;;;;;;5079274;28;20199;-75
2021/09/12 05:58:07;;;;;;;15.70;8.23;;;18.10;99.90;;;;;;5079335;28;20215;-75
2021/09/12 06:00:36;;;;;;;12.32;7.80;;;18.20;99.90;;;;;;5078659;28;20182;-75
2021/09/12 06:03:03;;;;;;;8.45;7.03;;;18.20;99.90;;;;;;5066020;28;20243;-76
2021/09/12 06:05:30;;;;;;;13.35;8.35;;;18.20;99.90;;;;;;5063606;28;20596;-77
2021/09/12 06:07:57;;;;;;;13.30;9.25;;;18.20;99.90;;;;;;5064812;28;20321;-77
2021/09/12 06:10:24;;;;;;;14.10;10.35;;;18.20;99.90;;;;;;5052364;28;20233;-76
2021/09/12 06:12:51;;;;;;;13.85;8.65;;;18.20;99.90;;;;;;5052647;28;20198;-79
2021/09/12 06:15:18;;;;;;;14.05;8.38;;;18.20;99.90;;;;;;5054843;28;20202;-77
2021/09/12 06:17:46;;;;;;;15.50;8.75;;;18.20;99.90;;;;;;5052933;28;20228;-77
2021/09/12 06:20:14;;;;;;;12.70;8.38;;;18.20;99.90;;;;;;5056858;28;20212;-75
2021/09/12 06:22:44;;;;;;;13.68;7.97;;;18.30;99.90;;;;;;5052186;28;20310;-75
2021/09/12 06:25:12;;;;;;;14.77;9.10;;;18.40;99.90;;;;;;5055388;28;20200;-76
2021/09/12 06:27:39;;;;;;;13.65;7.82;;;18.50;99.90;;;;;;5054468;28;20636;-76
2021/09/12 06:30:09;;;;;;;17.67;8.65;;;18.60;99.90;;;;;;5056974;28;20232;-76
2021/09/12 06:32:36;;;;;;;14.10;8.02;;;18.40;99.90;;;;;;5059900;28;20208;-76
2021/09/12 06:35:05;;;;;;;10.18;7.35;;;18.30;99.90;;;;;;5062942;28;20208;-75
2021/09/12 06:37:33;;;;;;;10.32;7.95;;;18.30;99.90;;;;;;5051159;28;20207;-76
2021/09/12 06:40:00;;;;;;;13.93;7.85;;;18.40;99.90;;;;;;5054852;28;20213;-76
2021/09/12 06:42:27;;;;;;;14.23;7.18;;;18.40;99.90;;;;;;5062138;28;20254;-75
2021/09/12 06:44:54;;;;;;;11.77;7.28;;;18.50;99.90;;;;;;5056296;28;20207;-75
2021/09/12 06:47:21;;;;;;;11.63;7.13;;;18.60;99.90;;;;;;5050912;28;20562;-75
2021/09/12 06:49:48;;;;;;;12.50;7.25;;;18.70;99.90;;;;;;5061202;28;20227;-75
2021/09/12 06:52:16;;;;;;;15.25;7.38;;;18.70;99.90;;;;;;5065361;28;20230;-75
2021/09/12 06:54:43;;;;;;;11.30;6.93;;;18.70;99.90;;;;;;5060639;28;20200;-75
2021/09/12 06:57:10;;;;;;;17.65;7.35;;;18.70;99.90;;;;;;5054634;28;20231;-75
2021/09/12 06:59:37;;;;;;;14.15;7.38;;;18.80;99.90;;;;;;5062293;28;20206;-75
2021/09/12 07:02:04;;;;;;;15.68;7.07;;;18.80;99.90;;;;;;5059423;28;20196;-75
2021/09/12 07:04:31;;;;;;;13.32;7.93;;;18.80;99.90;;;;;;5053370;28;20287;-75
2021/09/12 07:06:58;;;;;;;15.13;7.18;;;18.90;99.90;;;;;;5067888;28;20223;-75
2021/09/12 07:09:26;;;;;;;13.93;7.18;;;19.00;99.90;;;;;;5057676;28;20224;-75
2021/09/12 07:11:53;;;;;;;19.23;7.90;;;19.10;99.90;;;;;;5054259;28;20240;-76
2021/09/12 07:14:20;;;;;;;9.52;6.65;;;19.20;99.90;;;;;;5059683;28;20205;-75
2021/09/12 07:16:47;;;;;;;7.90;6.32;;;19.10;99.90;;;;;;5057053;28;20207;-75
2021/09/12 07:19:14;;;;;;;12.30;6.40;;;19.20;99.90;;;;;;5061075;28;20212;-75
2021/09/12 07:21:41;;;;;;;13.60;6.90;;;19.20;99.90;;;;;;5054972;28;20209;-76
2021/09/12 07:24:08;;;;;;;8.20;6.07;;;19.20;99.90;;;;;;5056026;28;20227;-76
2021/09/12 07:26:36;;;;;;;14.88;6.18;;;19.40;99.90;;;;;;5064211;28;20203;-76
2021/09/12 07:29:03;;;;;;;13.43;7.03;;;19.40;99.90;;;;;;5062407;28;20205;-75
2021/09/12 07:31:30;;;;;;;10.48;6.47;;;19.40;99.90;;;;;;5055809;28;20210;-75
2021/09/12 07:33:58;;;;;;;10.30;6.07;;;19.30;99.90;;;;;;5062432;28;20282;-75
2021/09/12 07:36:25;;;;;;;10.80;5.35;;;19.40;99.90;;;;;;5058570;28;20205;-75
2021/09/12 07:38:52;;;;;;;15.57;6.07;;;19.30;99.90;;;;;;5055425;28;20197;-75
2021/09/12 07:41:19;;;;;;;9.93;5.50;;;19.30;99.90;;;;;;5064771;28;20214;-75
2021/09/12 07:43:47;;;;;;;10.75;5.18;;;19.40;99.90;;;;;;5056902;28;20307;-75
2021/09/12 07:46:14;;;;;;;11.38;6.30;;;19.60;99.90;;;;;;5063103;28;20223;-75
2021/09/12 07:48:41;;;;;;;8.95;5.65;;;19.80;99.90;;;;;;5058064;28;20658;-76
2021/09/12 07:51:08;;;;;;;11.00;6.00;;;19.90;99.90;;;;;;5056242;28;20219;-75
2021/09/12 07:53:35;;;;;;;8.48;6.25;;;20.00;99.90;;;;;;5055354;28;20343;-75
2021/09/12 07:56:01;;;;;;;18.50;7.00;;;19.90;99.90;;;;;;5049755;28;20201;-75
2021/09/12 07:58:29;;;;;;;14.00;6.72;;;20.30;99.90;;;;;;5053490;28;20208;-75
2021/09/12 08:00:57;;;;;;;5.93;5.28;;;20.60;99.90;;;;;;5057199;28;20207;-75
2021/09/12 08:03:24;;;;;;;10.25;5.35;;;21.00;99.90;;;;;;5053680;28;20251;-76
2021/09/12 08:05:51;;;;;;;17.45;5.90;;;21.40;99.90;;;;;;5057845;28;20232;-76
2021/09/12 08:08:19;;;;;;;7.97;5.03;;;21.60;99.90;;;;;;5055163;28;20695;-76
2021/09/12 08:10:46;;;;;;;8.75;5.28;;;21.80;99.90;;;;;;5060520;28;20321;-75
2021/09/12 08:13:13;;;;;;;8.43;5.03;;;22.30;99.90;;;;;;5059130;28;20198;-76
2021/09/12 08:15:40;;;;;;;10.20;4.80;;;22.50;99.90;;;;;;5056439;28;20212;-76
2021/09/12 08:18:08;;;;;;;8.90;5.57;;;22.70;99.90;;;;;;5056769;28;20465;-76
2021/09/12 08:20:35;;;;;;;8.43;5.38;;;22.90;99.90;;;;;;5048695;28;20669;-76
2021/09/12 08:23:02;;;;;;;9.30;5.00;;;23.10;99.90;;;;;;5050143;28;20234;-76
2021/09/12 08:25:29;;;;;;;7.40;4.50;;;23.10;99.90;;;;;;5052621;28;20258;-75
2021/09/12 08:27:56;;;;;;;12.60;5.40;;;23.30;99.90;;;;;;5059392;28;20282;-76
2021/09/12 08:30:23;;;;;;;8.55;4.18;;;23.30;99.90;;;;;;5056377;28;20227;-76
2021/09/12 08:32:50;;;;;;;11.05;3.78;;;23.60;99.90;;;;;;5055072;28;20209;-76
2021/09/12 08:35:18;;;;;;;10.07;4.20;;;23.80;99.90;;;;;;5061382;28;20652;-76
2021/09/12 08:37:45;;;;;;;7.03;4.45;;;24.00;99.90;;;;;;5054954;28;20271;-76
2021/09/12 08:40:13;;;;;;;5.00;3.30;;;24.20;99.90;;;;;;5055367;28;20204;-76
2021/09/12 08:42:43;;;;;;;6.65;3.08;;;24.30;99.90;;;;;;5057317;28;20209;-76
2021/09/12 08:45:11;;;;;;;7.18;3.10;;;24.60;99.90;;;;;;5065647;28;21160;-76
2021/09/12 08:47:38;;;;;;;6.30;2.50;;;24.90;99.90;;;;;;5060793;28;20569;-76
2021/09/12 08:50:06;;;;;;;3.75;2.70;;;25.00;99.90;;;;;;5054512;28;20281;-76
2021/09/12 08:52:34;;;;;;;11.73;2.88;;;24.90;99.90;;;;;;5052252;28;20590;-76
2021/09/12 08:55:01;;;;;;;7.20;3.20;;;24.60;99.90;;;;;;5055026;28;20207;-76
2021/09/12 08:57:28;;;;;;;7.75;3.30;;;24.60;99.90;;;;;;5053259;28;20199;-75
2021/09/12 08:59:54;;;;;;;4.05;2.55;;;24.30;99.90;;;;;;5056780;28;20230;-76
2021/09/12 09:02:26;;;;;;;7.35;2.85;;;24.00;99.90;;;;;;5061466;28;20198;-75
2021/09/12 09:05:02;;;;;;;8.70;3.35;;;23.90;99.90;;;;;;5058631;28;20244;-76
2021/09/12 09:07:30;;;;;;;4.22;2.42;;;24.30;99.90;;;;;;5058656;28;20232;-76
2021/09/12 09:10:00;;;;;;;8.00;3.20;;;24.60;99.90;;;;;;5058957;28;20224;-76
2021/09/12 09:12:29;;;;;;;9.30;3.63;;;24.90;99.90;;;;;;5054086;28;20204;-76
2021/09/12 09:15:11;;;;;;;9.63;3.13;;;25.40;99.90;;;;;;5051150;28;20206;-76
2021/09/12 09:17:45;;;;;;;4.93;2.90;;;25.80;99.90;;;;;;5053264;28;20205;-76
2021/09/12 09:20:14;;;;;;;3.80;2.97;;;25.60;99.90;;;;;;5053596;28;20205;-76
2021/09/12 09:22:43;;;;;;;6.63;3.25;;;25.60;99.90;;;;;;5065626;28;20265;-76
2021/09/12 09:25:17;;;;;;;3.15;2.45;;;25.70;99.90;;;;;;5058258;28;20394;-76
2021/09/12 09:28:03;;;;;;;11.25;2.90;;;25.80;99.90;;;;;;5061345;28;20239;-76
2021/09/12 09:30:36;;;;;;;4.60;1.70;;;26.30;99.90;;;;;;5056980;28;20220;-76
2021/09/12 09:33:14;;;;;;;3.42;1.20;;;26.40;99.90;;;;;;5065172;28;20243;-76
2021/09/12 09:35:54;;;;;;;2.53;1.92;;;26.60;99.90;;;;;;5050857;28;20256;-76
2021/09/12 09:38:21;;;;;;;5.22;3.03;;;27.00;99.90;;;;;;5051931;28;20202;-76
2021/09/12 09:41:07;;;;;;;6.28;2.00;;;27.10;99.90;;;;;;5051097;28;20210;-76
2021/09/12 09:43:52;;;;;;;2.50;1.80;;;27.10;99.90;;;;;;5049367;28;20223;-76
2021/09/12 09:46:31;;;;;;;6.10;2.42;;;27.10;99.90;;;;;;5053999;28;20197;-76
2021/09/12 09:48:59;;;;;;;2.47;1.92;;;27.20;99.90;;;;;;5051507;28;20209;-76
2021/09/12 09:51:27;;;;;;;3.75;1.60;;;27.50;99.90;;;;;;5047831;28;20229;-76
2021/09/12 09:53:56;;;;;;;4.32;1.67;;;27.70;99.90;;;;;;5059985;28;20214;-76
2021/09/12 09:56:25;;;;;;;2.45;1.73;;;27.90;99.90;;;;;;5057648;28;20210;-76
2021/09/12 09:58:53;;;;;;;3.63;1.73;;;28.00;99.90;;;;;;5052578;28;20575;-76
2021/09/12 10:14:41;;;;;;;3.67;2.28;;;26.30;99.90;;;;;;5069890;28;20295;-75
2021/09/12 10:17:13;;;;;;;3.60;2.30;;;25.90;99.90;;;;;;5070562;28;20623;-75
2021/09/12 10:19:44;;;;;;;4.50;2.30;;;25.70;99.90;;;;;;5077061;28;20288;-76
2021/09/12 10:22:12;;;;;;;3.60;2.13;;;25.70;99.90;;;;;;5071654;28;20278;-76
2021/09/12 10:25:10;;;;;;;3.08;2.15;;;25.50;99.90;;;;;;5071048;28;20252;-76
2021/09/12 10:27:39;;;;;;;4.57;2.15;;;25.40;99.90;;;;;;5017616;28;20209;-76
2021/09/12 10:30:24;;;;;;;7.85;2.45;;;25.20;99.90;;;;;;5007789;28;20213;-75
2021/09/12 10:32:52;;;;;;;7.68;2.38;;;25.10;99.90;;;;;;5007367;28;20208;-76
2021/09/12 10:35:24;;;;;;;10.25;2.47;;;24.80;99.90;;;;;;5009109;28;20206;-76
2021/09/12 10:38:01;;;;;;;5.18;3.65;;;24.60;99.90;;;;;;5007278;28;20239;-75
2021/09/12 10:41:05;;;;;;;8.45;2.70;;;24.70;99.90;;;;;;5003013;28;20202;-76
2021/09/12 10:43:46;;;;;;;11.00;2.30;;;24.80;99.90;;;;;;5008613;28;20260;-75
2021/09/12 10:46:27;;;;;;;4.30;1.85;;;25.00;99.90;;;;;;5009849;28;20286;-75
2021/09/12 10:49:12;;;;;;;3.42;2.20;;;25.30;99.90;;;;;;5011159;28;20203;-76
2021/09/12 10:51:41;;;;;;;3.90;2.30;;;25.70;99.90;;;;;;5003496;28;20275;-75
2021/09/12 10:54:08;;;;;;;2.08;1.95;;;25.90;99.90;;;;;;5014824;28;20205;-75
2021/09/12 10:56:37;;;;;;;3.53;1.80;;;25.80;99.90;;;;;;5010123;28;20199;-75
2021/09/12 10:59:07;;;;;;;4.20;1.90;;;25.60;99.90;;;;;;5008338;28;20206;-75
2021/09/12 11:01:39;;;;;;;3.17;2.08;;;25.50;99.90;;;;;;5005938;28;20285;-75
2021/09/12 11:04:06;;;;;;;6.10;2.05;;;25.40;99.90;;;;;;5052491;28;22168;-75
2021/09/12 11:06:35;;;;;;;4.10;1.95;;;25.20;99.90;;;;;;5070176;28;20203;-75
2021/09/12 11:09:04;;;;;;;5.53;1.92;;;25.00;99.90;;;;;;5068499;28;20212;-75
2021/09/12 11:11:32;;;;;;;3.30;2.15;;;24.60;99.90;;;;;;5073345;28;20209;-75
2021/09/12 11:14:00;;;;;;;3.03;1.92;;;24.30;99.90;;;;;;5081959;28;20205;-76
2021/09/12 11:16:28;;;;;;;6.90;2.15;;;24.10;99.90;;;;;;5050598;28;20257;-75
2021/09/12 11:18:59;;;;;;;4.60;1.95;;;23.90;99.90;;;;;;5056015;28;20555;-75
2021/09/12 11:21:32;;;;;;;4.05;2.00;;;23.80;99.90;;;;;;5055288;28;20264;-75
2021/09/12 11:24:02;;;;;;;4.60;2.17;;;23.80;99.90;;;;;;5050432;28;20226;-75
2021/09/12 11:26:37;;;;;;;5.45;2.20;;;23.70;99.90;;;;;;5054347;28;20195;-75
2021/09/12 11:29:06;;;;;;;4.43;2.00;;;23.70;99.90;;;;;;5058035;28;20235;-75
2021/09/12 11:31:35;;;;;;;4.90;2.20;;;23.60;99.90;;;;;;5066933;28;20233;-75
2021/09/12 11:34:03;;;;;;;4.00;2.35;;;23.50;99.90;;;;;;5058402;28;20198;-76
2021/09/12 11:36:44;;;;;;;4.72;2.47;;;23.20;99.90;;;;;;5054935;28;20294;-76
2021/09/12 11:39:12;;;;;;;2.88;2.60;;;23.00;99.90;;;;;;5058759;28;20271;-75
2021/09/12 11:41:41;;;;;;;4.50;2.20;;;23.00;99.90;;;;;;5063139;28;20211;-76
2021/09/12 11:44:09;;;;;;;3.45;2.30;;;22.90;99.90;;;;;;5055373;28;20253;-76
2021/09/12 11:46:43;;;;;;;2.50;1.80;;;23.00;99.90;;;;;;5063615;28;20281;-76
2021/09/12 11:49:11;;;;;;;4.82;1.85;;;23.10;99.90;;;;;;5056916;28;20205;-75
2021/09/12 11:51:39;;;;;;;8.45;2.88;;;23.20;99.90;;;;;;5064039;28;20235;-75
2021/09/12 11:54:11;;;;;;;10.02;2.22;;;23.20;99.90;;;;;;5062840;28;20642;-75
2021/09/12 11:56:40;;;;;;;2.75;1.90;;;23.30;99.90;;;;;;5053770;28;20261;-75
2021/09/12 11:59:08;;;;;;;5.88;2.40;;;23.20;99.90;;;;;;5057141;28;20206;-75
2021/09/12 12:01:37;;;;;;;2.05;1.80;;;23.20;99.90;;;;;;5055218;28;20193;-75
2021/09/12 12:04:05;;;;;;;3.20;1.95;;;23.10;99.90;;;;;;5065878;28;20645;-75
2021/09/12 12:06:35;;;;;;;4.05;1.85;;;23.00;99.90;;;;;;5050199;28;20231;-75
2021/09/12 12:09:12;;;;;;;1.95;1.67;;;22.90;99.90;;;;;;5061266;28;20653;-76
2021/09/12 12:11:40;;;;;;;2.28;1.95;;;22.90;99.90;;;;;;5054391;28;20294;-75
2021/09/12 12:14:17;;;;;;;5.95;2.17;;;22.90;99.90;;;;;;5060651;28;20228;-75
2021/09/12 12:16:44;;;;;;;3.78;1.90;;;23.10;99.90;;;;;;5054927;28;20238;-75
2021/09/12 12:19:13;;;;;;;5.80;2.10;;;23.10;99.90;;;;;;5055212;28;20209;-75
2021/09/12 12:21:42;;;;;;;3.95;1.80;;;23.20;99.90;;;;;;5056529;28;20205;-76
2021/09/12 12:24:15;;;;;;;3.17;2.10;;;23.20;99.90;;;;;;5049279;28;20231;-76
2021/09/12 12:26:46;;;;;;;4.43;1.60;;;23.10;99.90;;;;;;5059802;28;20207;-76
2021/09/12 12:29:13;;;;;;;3.67;2.30;;;23.10;99.90;;;;;;5050038;28;20205;-75
2021/09/12 12:31:42;;;;;;;2.35;2.08;;;22.80;99.90;;;;;;5048384;28;20302;-75
2021/09/12 12:34:09;;;;;;;2.33;2.00;;;22.60;99.90;;;;;;5053207;28;20235;-76
2021/09/12 12:36:36;;;;;;;4.43;2.25;;;22.60;99.90;;;;;;5050002;28;20206;-75
2021/09/12 12:39:17;;;;;;;2.92;2.05;;;22.60;99.90;;;;;;5049111;28;20239;-76
2021/09/12 12:41:55;;;;;;;2.72;2.00;;;22.80;99.90;;;;;;5048925;28;20293;-76
2021/09/12 12:44:23;;;;;;;5.72;2.50;;;22.80;99.90;;;;;;5055544;28;20232;-76
2021/09/12 12:46:52;;;;;;;4.80;2.30;;;22.90;99.90;;;;;;5052449;28;20257;-76
2021/09/12 12:49:27;;;;;;;2.95;2.13;;;22.90;99.90;;;;;;5058751;28;20246;-76
2021/09/12 12:52:09;;;;;;;5.25;2.10;;;23.10;99.90;;;;;;5067731;28;20204;-76
2021/09/12 12:54:39;;;;;;;2.67;2.00;;;23.10;99.90;;;;;;5056979;28;20200;-76
2021/09/12 12:57:10;;;;;;;7.53;2.00;;;23.10;99.90;;;;;;5063061;28;20203;-76